Time;durP1;ratioP1;P1;durP2;ratioP2;P2;SDS_P1;SDS_P2;PMS_P1;PMS_P2;Temp;Humidity;BMP_temperature;BMP_pressure;BME280_temperature;BME280_humidity;BME280_pressure;Samples;Min_cycle;Max_cycle;Signal;HPM_P1;HPM_P2
2023/07/03 00:00:15;;;;;;;37.65;16.70;;;;;;;16.89;100.00;97095.78;5030797;28;20400;-69
2023/07/03 00:02:42;;;;;;;33.75;16.52;;;;;;;16.87;100.00;97090.75;5030434;28;20407;-69
2023/07/03 00:05:10;;;;;;;34.15;16.92;;;;;;;16.89;100.00;97087.78;5030868;28;20434;-69
2023/07/03 00:07:36;;;;;;;35.08;16.65;;;;;;;16.89;100.00;97093.91;5029593;28;20423;-69
2023/07/03 00:10:04;;;;;;;34.85;16.75;;;;;;;16.88;100.00;97097.69;5029786;28;20407;-69
2023/07/03 00:12:31;;;;;;;36.77;16.53;;;;;;;16.86;100.00;97093.72;5030791;28;20410;-69
2023/07/03 00:14:57;;;;;;;38.80;17.60;;;;;;;16.86;100.00;97091.03;5030329;28;20424;-69
2023/07/03 00:17:25;;;;;;;37.85;17.15;;;;;;;16.84;100.00;97085.97;5030707;28;20455;-69
2023/07/03 00:19:51;;;;;;;34.42;15.63;;;;;;;16.83;100.00;97087.09;5030685;28;20399;-69
2023/07/03 00:22:17;;;;;;;35.15;15.95;;;;;;;16.82;100.00;97092.72;5030243;28;20832;-69
2023/07/03 00:24:44;;;;;;;31.77;15.85;;;;;;;16.83;100.00;97091.66;5030656;28;20939;-69
2023/07/03 00:27:10;;;;;;;32.58;15.80;;;;;;;16.82;100.00;97087.38;5030499;28;20518;-68
2023/07/03 00:29:36;;;;;;;30.83;15.30;;;;;;;16.83;100.00;97102.34;5030410;28;20407;-68
2023/07/03 00:32:06;;;;;;;29.63;15.55;;;;;;;16.79;100.00;97096.78;5030254;28;20409;-68
2023/07/03 00:34:33;;;;;;;29.92;15.75;;;;;;;16.77;100.00;97095.47;5030647;28;20445;-70
2023/07/03 00:36:59;;;;;;;28.10;15.10;;;;;;;16.73;100.00;97094.50;5034362;28;20489;-69
2023/07/03 00:39:26;;;;;;;30.08;14.77;;;;;;;16.71;100.00;97102.81;5034422;28;20876;-70
2023/07/03 00:41:52;;;;;;;37.47;16.17;;;;;;;16.70;100.00;97103.09;5032762;28;20410;-69
2023/07/03 00:44:19;;;;;;;29.73;14.90;;;;;;;16.67;100.00;97091.16;5032667;28;20403;-70
2023/07/03 00:46:49;;;;;;;32.75;15.63;;;;;;;16.66;100.00;97091.44;5034146;28;20850;-69
2023/07/03 00:49:16;;;;;;;33.42;15.35;;;;;;;16.63;100.00;97098.16;5032653;28;20403;-69
2023/07/03 00:51:49;;;;;;;35.90;16.10;;;;;;;16.61;100.00;97092.34;5034157;28;20935;-69
2023/07/03 00:54:16;;;;;;;27.23;14.77;;;;;;;16.59;100.00;97089.13;5032591;28;20399;-69
2023/07/03 00:56:42;;;;;;;34.30;15.25;;;;;;;16.61;100.00;97090.44;5033939;28;20820;-69
2023/07/03 00:59:08;;;;;;;38.13;15.70;;;;;;;16.62;100.00;97086.69;5033962;28;20414;-69
2023/07/03 01:01:43;;;;;;;30.25;15.13;;;;;;;16.67;100.00;97093.03;5033749;28;20873;-69
2023/07/03 01:04:12;;;;;;;36.42;15.88;;;;;;;16.69;100.00;97086.28;5033638;28;20899;-69
2023/07/03 01:06:44;;;;;;;37.90;15.70;;;;;;;16.71;100.00;97094.81;5033673;28;20900;-69
2023/07/03 01:09:15;;;;;;;32.20;15.07;;;;;;;16.71;100.00;97088.66;5033993;28;20431;-69
2023/07/03 01:11:44;;;;;;;27.48;13.77;;;;;;;16.75;100.00;97084.31;5032243;28;20415;-69
2023/07/03 01:14:13;;;;;;;29.40;14.10;;;;;;;16.76;100.00;97086.69;5032117;28;20403;-69
2023/07/03 01:16:39;;;;;;;31.77;15.10;;;;;;;16.80;100.00;97086.88;5033746;28;20914;-69
2023/07/03 01:19:12;;;;;;;25.53;13.87;;;;;;;16.81;100.00;97083.91;5033730;28;20469;-69
2023/07/03 01:21:46;;;;;;;28.92;14.57;;;;;;;16.83;100.00;97084.41;5033554;28;20407;-67
2023/07/03 01:24:23;;;;;;;29.02;14.57;;;;;;;16.84;100.00;97082.53;5033543;28;20465;-69
2023/07/03 01:26:49;;;;;;;25.27;13.55;;;;;;;16.86;100.00;97078.47;5033510;28;20511;-68
2023/07/03 01:29:17;;;;;;;26.48;13.85;;;;;;;16.89;100.00;97077.88;5033573;28;20886;-69
2023/07/03 01:31:44;;;;;;;28.90;13.25;;;;;;;16.90;100.00;97081.34;5032118;28;20399;-67
2023/07/03 01:34:11;;;;;;;25.58;13.88;;;;;;;16.92;100.00;97084.50;5033345;28;20406;-68
2023/07/03 01:36:39;;;;;;;25.98;13.32;;;;;;;16.92;100.00;97087.16;5033242;28;20399;-68
2023/07/03 01:39:06;;;;;;;26.45;13.40;;;;;;;16.93;100.00;97083.41;5033371;28;20726;-68
2023/07/03 01:41:35;;;;;;;32.50;14.95;;;;;;;16.97;100.00;97076.38;5033120;28;20407;-69
2023/07/03 01:44:02;;;;;;;29.90;13.77;;;;;;;16.96;100.00;97082.81;5033202;28;20414;-67
2023/07/03 01:46:28;;;;;;;26.95;13.38;;;;;;;16.96;100.00;97078.25;5031969;28;20423;-68
2023/07/03 01:48:54;;;;;;;24.98;13.20;;;;;;;16.96;100.00;97072.91;5033151;28;20748;-68
2023/07/03 01:51:32;;;;;;;24.08;13.00;;;;;;;16.97;100.00;97073.72;5033069;28;20416;-68
2023/07/03 01:54:07;;;;;;;24.73;13.02;;;;;;;16.96;100.00;97072.91;5031420;28;20418;-68
2023/07/03 01:56:41;;;;;;;22.95;13.10;;;;;;;17.00;100.00;97073.88;5033093;28;20402;-67
2023/07/03 01:59:10;;;;;;;26.27;14.07;;;;;;;17.00;100.00;97075.75;5032898;28;20427;-68
2023/07/03 02:01:48;;;;;;;29.33;13.23;;;;;;;17.00;100.00;97060.50;5032695;28;20415;-69
2023/07/03 02:04:23;;;;;;;27.90;14.13;;;;;;;17.03;100.00;97067.16;5032861;28;20884;-69
2023/07/03 02:06:50;;;;;;;27.30;13.13;;;;;;;17.01;100.00;97063.97;5032737;28;20478;-69
2023/07/03 02:09:17;;;;;;;28.67;13.88;;;;;;;17.01;100.00;97064.78;5032836;28;20407;-69
2023/07/03 02:11:47;;;;;;;22.50;12.38;;;;;;;17.02;100.00;97065.56;5032546;28;20489;-69
2023/07/03 02:14:14;;;;;;;31.90;14.07;;;;;;;17.03;100.00;97065.28;5032499;28;20884;-69
2023/07/03 02:16:41;;;;;;;25.02;13.38;;;;;;;17.05;100.00;97062.31;5032622;28;20403;-69
2023/07/03 02:19:08;;;;;;;31.13;14.57;;;;;;;17.06;100.00;97066.56;5032608;28;20481;-69
2023/07/03 02:21:38;;;;;;;35.85;15.90;;;;;;;17.07;100.00;97064.66;5032252;28;20406;-69
2023/07/03 02:24:04;;;;;;;30.77;14.43;;;;;;;17.06;100.00;97069.25;5032214;28;20494;-69
2023/07/03 02:26:31;;;;;;;25.88;13.15;;;;;;;17.08;100.00;97069.72;5030913;28;20924;-69
2023/07/03 02:28:58;;;;;;;28.63;13.27;;;;;;;17.08;100.00;97069.72;5032507;28;20493;-69
2023/07/03 02:31:24;;;;;;;32.20;14.27;;;;;;;17.11;100.00;97069.13;5032361;28;20749;-68
2023/07/03 02:33:50;;;;;;;27.25;13.60;;;;;;;17.15;100.00;97072.78;5032119;28;20473;-69
2023/07/03 02:36:17;;;;;;;30.25;13.77;;;;;;;17.13;100.00;97074.97;5032151;28;20442;-69
2023/07/03 02:38:43;;;;;;;27.60;13.60;;;;;;;17.14;100.00;97063.16;5032203;28;20407;-69
2023/07/03 02:41:10;;;;;;;24.88;12.27;;;;;;;17.16;100.00;97065.53;5032087;28;20431;-69
2023/07/03 02:43:36;;;;;;;21.38;11.63;;;;;;;17.16;100.00;97063.66;5031932;28;20399;-68
2023/07/03 02:46:05;;;;;;;22.55;11.63;;;;;;;17.16;100.00;97060.97;5031828;28;20419;-69
2023/07/03 02:48:31;;;;;;;21.77;12.20;;;;;;;17.17;100.00;97065.25;5032036;28;20399;-70
2023/07/03 02:50:58;;;;;;;23.93;11.67;;;;;;;17.17;100.00;97064.44;5031978;28;20437;-69
2023/07/03 02:53:24;;;;;;;25.02;12.70;;;;;;;17.19;100.00;97062.28;5031557;28;20418;-69
2023/07/03 02:55:50;;;;;;;34.00;15.48;;;;;;;17.16;100.00;97068.22;5031838;28;20457;-69
2023/07/03 02:58:18;;;;;;;33.55;14.15;;;;;;;17.12;100.00;97069.91;5031398;28;20402;-69
2023/07/03 03:00:44;;;;;;;25.48;12.45;;;;;;;17.12;100.00;97062.69;5031783;28;20415;-69
2023/07/03 03:03:13;;;;;;;22.30;11.68;;;;;;;17.12;100.00;97061.91;5031539;28;20962;-68
2023/07/03 03:05:39;;;;;;;23.50;11.18;;;;;;;17.15;100.00;97070.09;5031648;28;20722;-69
2023/07/03 03:08:07;;;;;;;23.10;11.75;;;;;;;17.17;100.00;97056.44;5031707;28;20399;-69
2023/07/03 03:10:34;;;;;;;25.48;12.40;;;;;;;17.15;100.00;97056.72;5031706;28;20403;-69
2023/07/03 03:13:00;;;;;;;22.23;12.27;;;;;;;17.16;100.00;97057.50;5031417;28;20884;-69
2023/07/03 03:15:26;;;;;;;33.30;14.93;;;;;;;17.18;100.00;97053.47;5031353;28;20440;-69
2023/07/03 03:17:52;;;;;;;29.35;13.18;;;;;;;17.18;100.00;97056.13;5031679;28;20499;-69
2023/07/03 03:20:20;;;;;;;33.50;14.17;;;;;;;17.15;100.00;97064.75;5031451;28;20403;-69
2023/07/03 03:22:46;;;;;;;24.50;12.98;;;;;;;17.15;100.00;97064.75;5031234;28;20899;-69
2023/07/03 03:25:12;;;;;;;22.50;11.33;;;;;;;17.16;100.00;97058.31;5031331;28;20413;-69
2023/07/03 03:27:39;;;;;;;27.80;12.60;;;;;;;17.19;100.00;97055.03;5031274;28;20422;-69
2023/07/03 03:30:06;;;;;;;23.20;12.25;;;;;;;17.20;100.00;97055.84;5031327;28;20403;-69
2023/07/03 03:32:32;;;;;;;23.88;11.25;;;;;;;17.21;100.00;97057.41;5030964;28;20460;-69
2023/07/03 03:34:58;;;;;;;34.90;13.75;;;;;;;17.21;100.00;97047.50;5031220;28;20414;-69
2023/07/03 03:37:26;;;;;;;26.75;13.15;;;;;;;17.22;100.00;97056.31;5031240;28;20399;-69
2023/07/03 03:39:52;;;;;;;33.97;14.30;;;;;;;17.21;100.00;97052.06;5031090;28;20494;-69
2023/07/03 03:42:18;;;;;;;33.30;13.87;;;;;;;17.22;100.00;97051.75;5030957;28;20571;-69
2023/07/03 03:44:45;;;;;;;25.65;13.02;;;;;;;17.19;100.00;97054.25;5031044;28;20880;-69
2023/07/03 03:47:11;;;;;;;20.15;11.73;;;;;;;17.20;100.00;97058.50;5031003;28;20820;-69
2023/07/03 03:49:39;;;;;;;25.07;12.33;;;;;;;17.19;100.00;97062.28;5030969;28;20779;-69
2023/07/03 03:52:06;;;;;;;22.27;11.73;;;;;;;17.20;100.00;97056.63;5030671;28;20449;-69
2023/07/03 03:54:34;;;;;;;22.42;11.20;;;;;;;17.21;100.00;97063.56;5030920;28;20838;-69
2023/07/03 03:57:00;;;;;;;21.55;10.68;;;;;;;17.22;100.00;97067.00;5030977;28;20746;-69
2023/07/03 03:59:26;;;;;;;35.92;14.68;;;;;;;17.24;100.00;97068.28;5030577;28;20403;-69
2023/07/03 04:01:52;;;;;;;26.87;13.00;;;;;;;17.23;100.00;97068.59;5030872;28;20403;-69
2023/07/03 04:04:19;;;;;;;28.40;13.13;;;;;;;17.21;100.00;97063.56;5030943;28;20407;-69
2023/07/03 04:06:45;;;;;;;23.33;12.15;;;;;;;17.20;100.00;97064.66;5030181;28;20423;-69
2023/07/03 04:09:11;;;;;;;21.98;11.27;;;;;;;17.21;100.00;97065.44;5030967;28;20435;-69
2023/07/03 04:11:39;;;;;;;23.30;10.70;;;;;;;17.22;100.00;97070.47;5034701;28;20454;-69
2023/07/03 04:14:05;;;;;;;24.45;11.63;;;;;;;17.22;100.00;97072.34;5034800;28;20403;-69
2023/07/03 04:16:33;;;;;;;21.53;11.60;;;;;;;17.22;100.00;97072.34;5034060;28;20481;-69
2023/07/03 04:18:59;;;;;;;17.60;9.65;;;;;;;17.21;100.00;97074.25;5033922;28;20443;-69
2023/07/03 04:21:25;;;;;;;39.05;14.43;;;;;;;17.25;100.00;97074.44;5034007;28;20399;-69
2023/07/03 04:23:52;;;;;;;22.38;11.35;;;;;;;17.21;100.00;97068.13;5033994;28;20406;-69
2023/07/03 04:26:18;;;;;;;20.20;11.27;;;;;;;17.22;100.00;97058.97;5034542;28;20425;-69
2023/07/03 04:28:45;;;;;;;23.50;12.70;;;;;;;17.25;100.00;97067.22;5034451;28;20414;-69
2023/07/03 04:31:12;;;;;;;24.27;11.17;;;;;;;17.25;100.00;97069.88;5034244;28;20414;-69
2023/07/03 04:33:38;;;;;;;20.13;10.30;;;;;;;17.28;100.00;97077.31;5032874;28;21110;-69
2023/07/03 04:36:04;;;;;;;17.30;9.27;;;;;;;17.31;100.00;97078.56;5034388;28;20452;-69
2023/07/03 04:38:31;;;;;;;21.85;11.32;;;;;;;17.31;100.00;97082.03;5034382;28;20406;-69
2023/07/03 04:40:57;;;;;;;22.45;10.93;;;;;;;17.32;100.00;97077.50;5029868;28;20402;-69
2023/07/03 04:43:23;;;;;;;21.70;10.70;;;;;;;17.33;100.00;97081.75;5032738;28;20407;-69
2023/07/03 04:45:52;;;;;;;16.40;10.07;;;;;;;17.36;100.00;97081.16;5033916;28;20481;-69
2023/07/03 04:48:19;;;;;;;21.97;11.60;;;;;;;17.36;100.00;97087.31;5034067;28;20410;-70
2023/07/03 04:50:48;;;;;;;30.55;12.90;;;;;;;17.41;100.00;97084.50;5033987;28;20746;-69
2023/07/03 04:53:14;;;;;;;25.13;12.57;;;;;;;17.35;100.00;97084.94;5033834;28;20403;-69
2023/07/03 04:55:41;;;;;;;20.23;10.73;;;;;;;17.36;100.00;97087.31;5033200;28;20967;-69
2023/07/03 04:58:07;;;;;;;19.80;10.77;;;;;;;17.40;100.00;97090.94;5033426;28;20403;-69
2023/07/03 05:00:34;;;;;;;20.90;10.45;;;;;;;17.43;100.00;97089.56;5033614;28;20403;-69
2023/07/03 05:03:03;;;;;;;16.40;9.23;;;;;;;17.47;100.00;97085.19;5033174;28;20811;-69
2023/07/03 05:05:30;;;;;;;23.92;10.88;;;;;;;17.51;100.00;97086.16;5033296;28;20410;-69
2023/07/03 05:07:56;;;;;;;22.73;11.63;;;;;;;17.49;100.00;97084.88;5033890;28;20414;-70
2023/07/03 05:10:23;;;;;;;22.40;11.52;;;;;;;17.51;100.00;97094.19;5033989;28;20769;-69
2023/07/03 05:12:50;;;;;;;19.10;10.30;;;;;;;17.53;100.00;97097.34;5033572;28;20407;-69
2023/07/03 05:15:19;;;;;;;19.20;9.63;;;;;;;17.55;100.00;97102.41;5033675;28;20406;-69
2023/07/03 05:17:49;;;;;;;15.23;8.43;;;;;;;17.58;100.00;97099.94;5033654;28;20395;-69
2023/07/03 05:20:18;;;;;;;19.00;9.15;;;;;;;17.62;100.00;97094.78;5033461;28;20490;-70
2023/07/03 05:22:45;;;;;;;15.60;9.50;;;;;;;17.64;100.00;97096.06;5032988;28;20423;-69
2023/07/03 05:25:13;;;;;;;14.15;8.40;;;;;;;17.68;100.00;97105.06;5033091;28;20395;-69
2023/07/03 05:27:39;;;;;;;14.30;8.77;;;;;;;17.73;100.00;97104.16;5033214;28;20423;-69
2023/07/03 05:30:08;;;;;;;14.27;8.37;;;;;;;17.79;100.00;97110.97;5033444;28;20407;-69
2023/07/03 05:32:34;;;;;;;24.80;12.38;;;;;;;17.83;100.00;97117.28;5033137;28;20507;-69
2023/07/03 05:35:03;;;;;;;22.15;10.93;;;;;;;17.82;100.00;97112.25;5033489;28;20414;-69
2023/07/03 05:37:31;;;;;;;16.98;9.35;;;;;;;17.88;100.00;97113.72;5033425;28;20486;-69
2023/07/03 05:39:57;;;;;;;18.88;10.80;;;;;;;17.89;100.00;97112.63;5033267;28;20407;-69
2023/07/03 05:42:23;;;;;;;20.45;10.70;;;;;;;17.87;100.00;97117.50;5030938;28;20404;-69
2023/07/03 05:44:50;;;;;;;19.83;10.20;;;;;;;17.88;100.00;97111.03;5025157;28;20860;-69
2023/07/03 05:47:16;;;;;;;25.75;11.40;;;;;;;17.89;100.00;97102.72;5022918;28;20508;-69
2023/07/03 05:49:43;;;;;;;18.45;9.75;;;;;;;17.90;100.00;97100.78;5019587;28;20470;-70
2023/07/03 05:52:10;;;;;;;20.15;9.75;;;;;;;17.90;100.00;97101.59;5030042;28;20502;-69
2023/07/03 05:54:38;;;;;;;26.13;10.90;;;;;;;17.96;100.00;97110.31;5025426;28;20473;-75
2023/07/03 05:57:07;;;;;;;21.85;9.88;;;;;;;17.96;100.00;97108.44;5019731;28;20403;-75
2023/07/03 05:59:33;;;;;;;21.15;10.40;;;;;;;17.97;100.00;97110.00;5031091;28;20873;-75
2023/07/03 06:02:00;;;;;;;15.07;8.27;;;;;;;18.03;100.00;97108.00;5031898;28;20403;-75
2023/07/03 06:04:26;;;;;;;21.10;10.38;;;;;;;18.04;100.00;97113.03;5032313;28;20395;-75
2023/07/03 06:06:55;;;;;;;17.90;9.65;;;;;;;18.09;100.00;97112.13;5030950;28;20509;-74
2023/07/03 06:09:22;;;;;;;19.42;9.27;;;;;;;18.12;100.00;97114.19;5031785;28;20457;-75
2023/07/03 06:11:49;;;;;;;16.42;9.27;;;;;;;18.15;100.00;97122.41;5031699;28;20407;-74
2023/07/03 06:14:17;;;;;;;17.42;8.50;;;;;;;18.21;100.00;97116.91;5031655;28;20895;-74
2023/07/03 06:16:44;;;;;;;20.70;9.90;;;;;;;18.25;100.00;97123.25;5032015;28;20411;-73
2023/07/03 06:19:11;;;;;;;17.65;9.30;;;;;;;18.22;100.00;97121.97;5032127;28;20489;-74
2023/07/03 06:21:37;;;;;;;24.13;10.93;;;;;;;18.27;100.00;97124.50;5031514;28;20418;-73
2023/07/03 06:24:04;;;;;;;21.17;10.17;;;;;;;18.33;100.00;97133.25;5031717;28;20395;-73
2023/07/03 06:26:33;;;;;;;19.08;9.43;;;;;;;18.31;100.00;97130.06;5031979;28;20437;-75
2023/07/03 06:29:01;;;;;;;21.55;9.93;;;;;;;18.37;100.00;97129.63;5032125;28;20407;-75
2023/07/03 06:31:27;;;;;;;22.30;9.52;;;;;;;18.48;100.00;97130.97;5031911;28;20411;-75
2023/07/03 06:33:53;;;;;;;18.77;9.77;;;;;;;18.50;100.00;97127.94;5031045;28;20407;-75
2023/07/03 06:36:21;;;;;;;19.80;9.73;;;;;;;18.61;100.00;97133.88;5031345;28;20399;-73
2023/07/03 06:38:47;;;;;;;24.20;9.95;;;;;;;18.63;100.00;97132.47;5031257;28;20460;-75
2023/07/03 06:41:13;;;;;;;19.40;9.55;;;;;;;18.66;100.00;97139.09;5031140;28;20439;-75
2023/07/03 06:43:39;;;;;;;23.27;9.80;;;;;;;18.89;100.00;97138.72;5030836;28;20506;-75
2023/07/03 06:46:07;;;;;;;20.52;9.73;;;;;;;18.88;100.00;97147.88;5031282;28;20411;-75
2023/07/03 06:48:33;;;;;;;23.85;10.02;;;;;;;18.75;100.00;97146.09;5031691;28;20436;-75
2023/07/03 06:51:04;;;;;;;18.30;9.15;;;;;;;18.76;100.00;97147.66;5031637;28;20403;-75
2023/07/03 06:53:30;;;;;;;17.52;8.75;;;;;;;18.77;100.00;97143.09;5031209;28;20403;-72
2023/07/03 06:55:57;;;;;;;19.17;9.32;;;;;;;18.72;100.00;97144.00;5031309;28;20433;-73
2023/07/03 06:58:24;;;;;;;16.75;8.40;;;;;;;18.71;100.00;97138.97;5031529;28;20406;-72
2023/07/03 07:00:50;;;;;;;18.73;8.67;;;;;;;18.69;100.00;97141.97;5031026;28;20486;-72
2023/07/03 07:03:18;;;;;;;21.70;9.60;;;;;;;18.81;100.00;97144.84;5031051;28;20421;-72
2023/07/03 07:05:45;;;;;;;21.90;9.13;;;;;;;18.83;100.00;97149.91;5031066;28;20423;-72
2023/07/03 07:08:16;;;;;;;19.90;9.68;;;;;;;18.91;100.00;97141.91;5030842;28;20443;-72
2023/07/03 07:10:43;;;;;;;22.00;9.10;;;;;;;18.93;100.00;97139.69;5031079;28;20398;-72
2023/07/03 07:13:10;;;;;;;30.38;10.52;;;;;;;18.80;100.00;97145.16;5031070;28;20438;-74
2023/07/03 07:15:36;;;;;;;17.20;8.77;;;;;;;18.86;100.00;97146.63;5030933;28;20407;-74
2023/07/03 07:18:03;;;;;;;17.20;9.20;;;;;;;18.83;100.00;97142.66;5031246;28;20742;-74
2023/07/03 07:20:35;;;;;;;22.15;9.82;;;;;;;18.91;100.00;97152.63;5030978;28;20461;-74
2023/07/03 07:23:01;;;;;;;17.25;8.77;;;;;;;18.87;100.00;97148.16;5030830;28;20399;-74
2023/07/03 07:25:27;;;;;;;21.05;9.43;;;;;;;18.92;100.00;97142.69;5030670;28;20868;-73
2023/07/03 07:27:53;;;;;;;25.70;9.68;;;;;;;19.00;100.00;97146.50;5030712;28;20415;-73
2023/07/03 07:30:20;;;;;;;18.77;8.95;;;;;;;18.97;100.00;97149.78;5030925;28;20411;-73
2023/07/03 07:32:47;;;;;;;18.27;8.73;;;;;;;18.93;100.00;97161.16;5030758;28;20453;-72
2023/07/03 07:35:14;;;;;;;18.23;8.80;;;;;;;18.87;100.00;97150.84;5030896;28;20490;-76
2023/07/03 07:37:42;;;;;;;15.35;7.97;;;;;;;18.85;100.00;97156.56;5030923;28;20395;-74
2023/07/03 07:40:09;;;;;;;16.00;8.07;;;;;;;18.78;100.00;97150.84;5029335;28;20446;-74
2023/07/03 07:42:36;;;;;;;14.90;8.10;;;;;;;18.74;100.00;97152.53;5030003;28;20502;-75
2023/07/03 07:45:02;;;;;;;11.80;6.57;;;;;;;18.72;100.00;97156.66;5029867;28;20404;-74
2023/07/03 07:47:29;;;;;;;20.73;8.80;;;;;;;18.73;100.00;97160.88;5030393;28;20454;-74
2023/07/03 07:49:55;;;;;;;14.90;7.68;;;;;;;18.71;100.00;97153.19;5030655;28;20461;-75
2023/07/03 07:52:24;;;;;;;12.45;7.07;;;;;;;18.75;100.00;97156.81;5030338;28;20562;-72
2023/07/03 07:54:55;;;;;;;22.08;9.48;;;;;;;18.84;100.00;97168.38;5029354;28;20461;-73
2023/07/03 07:57:21;;;;;;;16.45;7.90;;;;;;;18.89;100.00;97164.75;5029525;28;20395;-74
2023/07/03 07:59:47;;;;;;;12.70;7.60;;;;;;;19.03;100.00;97167.31;5030651;28;20407;-74
2023/07/03 08:02:14;;;;;;;22.77;9.93;;;;;;;19.14;100.00;97161.38;5030777;28;20763;-73
2023/07/03 08:04:40;;;;;;;18.00;8.73;;;;;;;19.26;100.00;97156.19;5030780;28;20407;-73
2023/07/03 08:07:06;;;;;;;16.20;7.78;;;;;;;19.51;100.00;97161.97;5030497;28;20923;-72
2023/07/03 08:09:33;;;;;;;23.05;9.02;;;;;;;19.68;100.00;97164.69;5030408;28;20399;-72
2023/07/03 08:12:03;;;;;;;21.35;9.25;;;;;;;19.79;100.00;97159.75;5030470;28;20449;-72
2023/07/03 08:14:30;;;;;;;25.88;8.88;;;;;;;19.86;100.00;97171.63;5030698;28;20410;-72
2023/07/03 08:16:56;;;;;;;26.17;9.20;;;;;;;20.02;100.00;97171.94;5030610;28;20916;-72
2023/07/03 08:19:22;;;;;;;22.20;9.23;;;;;;;19.87;100.00;97173.19;5030866;28;20418;-72
2023/07/03 08:21:49;;;;;;;20.83;8.27;;;;;;;19.90;100.00;97167.22;5029224;28;20415;-74
2023/07/03 08:24:15;;;;;;;27.13;9.25;;;;;;;20.08;100.00;97171.47;5030541;28;20465;-73
2023/07/03 08:26:44;;;;;;;27.85;8.82;;;;;;;19.93;100.00;97174.63;5030305;28;20411;-72
2023/07/03 08:29:12;;;;;;;17.00;8.43;;;;;;;19.91;100.00;97176.84;5030111;28;20895;-72
2023/07/03 08:31:38;;;;;;;17.73;7.57;;;;;;;19.92;100.00;97169.59;5029369;28;20884;-73
2023/07/03 08:34:04;;;;;;;12.77;7.10;;;;;;;19.96;100.00;97160.56;5029585;28;20509;-75
2023/07/03 08:36:31;;;;;;;19.95;8.93;;;;;;;20.08;100.00;97176.03;5029765;28;20391;-75
2023/07/03 08:38:57;;;;;;;23.88;9.77;;;;;;;20.12;100.00;97171.63;5028878;28;20416;-74
2023/07/03 08:41:23;;;;;;;30.27;10.77;;;;;;;20.13;100.00;97172.41;5030416;28;20493;-74
2023/07/03 08:43:55;;;;;;;23.02;9.50;;;;;;;20.07;100.00;97166.44;5030497;28;20443;-75
2023/07/03 08:46:25;;;;;;;19.20;8.40;;;;;;;20.17;100.00;97170.66;5030376;28;20415;-74
2023/07/03 08:48:54;;;;;;;29.07;10.90;;;;;;;20.23;100.00;97177.44;5030555;28;20399;-73
2023/07/03 08:51:23;;;;;;;22.40;10.20;;;;;;;20.04;100.00;97177.78;5030195;28;20399;-75
2023/07/03 08:53:56;;;;;;;20.73;9.57;;;;;;;19.96;100.00;97178.59;5029849;28;20399;-73
2023/07/03 08:56:26;;;;;;;15.95;8.88;;;;;;;19.95;100.00;97177.78;5029144;28;20403;-72
2023/07/03 08:58:54;;;;;;;24.33;9.30;;;;;;;19.99;100.00;97173.38;5027465;28;20495;-74
2023/07/03 09:01:32;;;;;;;19.13;8.83;;;;;;;20.09;100.00;97181.09;5032853;28;20822;-72
2023/07/03 09:04:08;;;;;;;17.15;8.18;;;;;;;20.10;100.00;97171.94;5034539;28;20940;-72
2023/07/03 09:06:42;;;;;;;25.67;10.32;;;;;;;20.12;100.00;97176.22;5042235;28;20497;-74
2023/07/03 09:09:16;;;;;;;15.43;7.78;;;;;;;20.08;100.00;97168.78;5015060;28;20413;-73
2023/07/03 09:11:47;;;;;;;18.60;8.50;;;;;;;20.03;100.00;97177.00;5012981;28;20401;-74
2023/07/03 09:14:22;;;;;;;14.82;7.75;;;;;;;20.01;100.00;97181.91;5024778;28;21725;-74
2023/07/03 09:16:50;;;;;;;17.75;8.10;;;;;;;20.03;100.00;97182.38;5037705;28;20409;-74
2023/07/03 09:19:20;;;;;;;13.65;7.53;;;;;;;20.08;100.00;97182.22;5029003;28;20457;-72
2023/07/03 09:21:48;;;;;;;13.93;6.78;;;;;;;20.17;100.00;97178.72;5031729;28;20422;-72
2023/07/03 09:24:21;;;;;;;13.90;7.18;;;;;;;20.26;100.00;97179.50;5017613;28;20405;-73
2023/07/03 09:26:53;;;;;;;14.82;7.68;;;;;;;20.28;100.00;97171.94;5030585;28;20419;-73
2023/07/03 09:29:20;;;;;;;12.57;6.57;;;;;;;20.32;100.00;97189.00;5025774;28;20413;-72
2023/07/03 09:31:46;;;;;;;22.20;8.77;;;;;;;20.34;100.00;97182.22;5018735;28;20412;-72
2023/07/03 09:34:14;;;;;;;18.73;7.47;;;;;;;20.47;100.00;97199.28;5026436;28;20523;-73
2023/07/03 09:36:43;;;;;;;17.33;7.70;;;;;;;20.47;100.00;97177.75;5031488;28;20441;-74
2023/07/03 09:39:11;;;;;;;23.70;8.13;;;;;;;20.61;100.00;97186.44;5026638;28;20519;-74
2023/07/03 09:41:39;;;;;;;16.48;7.50;;;;;;;20.76;100.00;97177.06;5021733;28;20497;-73
2023/07/03 09:44:11;;;;;;;11.25;5.90;;;;;;;21.07;100.00;97174.09;5018891;28;20901;-73
2023/07/03 09:46:38;;;;;;;22.90;7.47;;;;;;;21.17;100.00;97179.94;5027276;28;20912;-73
2023/07/03 09:49:08;;;;;;;24.63;9.05;;;;;;;21.28;100.00;97172.25;5016937;28;20410;-73
2023/07/03 09:51:37;;;;;;;21.20;7.63;;;;;;;21.15;96.98;97178.66;5022753;28;20405;-73
2023/07/03 09:54:16;;;;;;;11.27;5.75;;;;;;;20.94;100.00;97183.97;5024548;28;20901;-73
2023/07/03 09:56:42;;;;;;;13.10;6.25;;;;;;;20.96;100.00;97175.56;5015263;28;20484;-73
2023/07/03 09:59:09;;;;;;;13.83;5.97;;;;;;;21.06;100.00;97170.59;5025185;28;21103;-72
2023/07/03 10:01:39;;;;;;;10.43;5.45;;;;;;;21.31;100.00;97171.63;5024336;28;20422;-73
2023/07/03 10:04:07;;;;;;;12.25;5.95;;;;;;;21.62;100.00;97176.66;5032409;28;20395;-71
2023/07/03 10:06:35;;;;;;;20.60;6.82;;;;;;;21.69;100.00;97182.31;5030870;28;20419;-73
2023/07/03 10:09:05;;;;;;;18.60;6.78;;;;;;;21.71;97.05;97180.09;5031794;28;20498;-73
2023/07/03 10:11:40;;;;;;;15.85;6.05;;;;;;;21.70;100.00;97177.72;5030833;28;20407;-73
2023/07/03 10:14:13;;;;;;;13.32;5.90;;;;;;;21.78;100.00;97176.88;5028988;28;20974;-74
2023/07/03 10:16:42;;;;;;;10.38;4.88;;;;;;;21.86;100.00;97192.19;5034079;28;20950;-74
2023/07/03 10:19:09;;;;;;;27.80;7.70;;;;;;;21.87;100.00;97180.31;5035472;28;20456;-75
2023/07/03 10:21:38;;;;;;;16.08;6.00;;;;;;;21.77;100.00;97191.47;5035702;28;20431;-74
2023/07/03 10:24:07;;;;;;;19.70;6.78;;;;;;;21.72;100.00;97192.47;5039884;28;20465;-73
2023/07/03 10:26:38;;;;;;;14.52;5.55;;;;;;;21.48;100.00;97179.63;5044780;28;20773;-74
2023/07/03 10:29:11;;;;;;;22.10;7.22;;;;;;;21.57;91.31;97182.25;5044037;28;20875;-72
2023/07/03 10:31:41;;;;;;;12.23;5.53;;;;;;;21.67;99.88;97176.47;5050482;28;20456;-73
2023/07/03 10:34:12;;;;;;;10.80;5.05;;;;;;;21.90;100.00;97175.03;5051689;28;20408;-73
2023/07/03 10:36:44;;;;;;;10.73;4.90;;;;;;;22.17;100.00;97183.75;5052066;28;20867;-74
2023/07/03 10:39:17;;;;;;;11.52;4.43;;;;;;;22.38;95.55;97177.19;5044934;28;20395;-74
2023/07/03 10:41:49;;;;;;;9.32;4.68;;;;;;;22.52;80.85;97184.19;5029654;28;20422;-73
2023/07/03 10:44:21;;;;;;;11.93;4.10;;;;;;;22.66;80.38;97163.88;5031249;28;20490;-74
2023/07/03 10:46:53;;;;;;;6.63;3.63;;;;;;;22.51;91.78;97194.19;5029641;28;20454;-74
2023/07/03 10:49:28;;;;;;;12.27;4.80;;;;;;;22.46;73.82;97190.91;5031941;28;20454;-74
2023/07/03 10:52:06;;;;;;;8.00;3.65;;;;;;;22.26;93.00;97187.91;5026649;28;20413;-74
2023/07/03 10:54:37;;;;;;;10.60;3.90;;;;;;;22.24;100.00;97200.97;5039339;28;20431;-74
2023/07/03 10:57:09;;;;;;;10.95;3.97;;;;;;;22.35;79.83;97193.22;5051331;28;20401;-74
2023/07/03 10:59:41;;;;;;;12.38;4.03;;;;;;;22.44;86.88;97182.38;5035848;28;20880;-74
2023/07/03 11:02:19;;;;;;;9.63;3.83;;;;;;;22.59;89.76;97184.44;5031811;28;20931;-74
2023/07/03 11:04:55;;;;;;;10.88;3.97;;;;;;;22.72;83.99;97180.63;5034935;28;20408;-74
2023/07/03 11:07:31;;;;;;;10.40;4.00;;;;;;;22.83;91.03;97178.34;5042535;28;20555;-74
2023/07/03 11:10:05;;;;;;;9.73;4.15;;;;;;;22.97;84.12;97176.09;5047319;28;20397;-74
2023/07/03 11:12:38;;;;;;;10.70;4.13;;;;;;;23.01;96.95;97174.28;5028320;28;20403;-73
2023/07/03 11:15:14;;;;;;;10.57;4.15;;;;;;;23.19;83.47;97186.47;5029959;28;20996;-73
2023/07/03 11:17:55;;;;;;;6.60;3.95;;;;;;;23.13;92.97;97190.53;5026445;28;20400;-73